You are listening to:
KCLT Approach (Arrival) - Charlotte, North Carolina, United States

KCLT 041752Z 05005KT 10SM FEW040 BKN150 OVC250 11/01 A3021 RMK SLP227 T01110006 10117 20067 58026

If stream doesn't start automatically press the play button
If stream stops then reload player then press play